createdAt,value
2023-04-03T00:01:12.968Z,14.43
2023-04-03T00:03:42.329Z,9.73
2023-04-03T00:06:12.026Z,9.75
2023-04-03T00:08:41.410Z,8.93
2023-04-03T00:11:10.692Z,7.80
2023-04-03T00:13:40.366Z,7.50
2023-04-03T00:16:09.734Z,6.85
2023-04-03T00:18:38.489Z,6.75
2023-04-03T00:21:07.101Z,5.72
2023-04-03T00:23:35.650Z,6.07
2023-04-03T00:26:03.682Z,5.45
2023-04-03T00:28:31.478Z,5.03
2023-04-03T00:31:00.793Z,5.60
2023-04-03T00:33:28.745Z,5.50
2023-04-03T00:35:56.638Z,4.70
2023-04-03T00:38:24.728Z,4.50
2023-04-03T00:40:52.547Z,4.57
2023-04-03T00:43:22.642Z,5.80
2023-04-03T00:45:52.791Z,5.93
2023-04-03T00:48:24.926Z,7.75
2023-04-03T00:53:24.435Z,5.20
2023-04-03T00:55:54.204Z,5.05
2023-04-03T00:58:26.405Z,6.25
2023-04-03T01:01:00.276Z,6.60
2023-04-03T01:03:29.457Z,7.30
2023-04-03T01:05:57.239Z,6.95
2023-04-03T01:08:25.411Z,6.47
2023-04-03T01:10:53.263Z,6.65
2023-04-03T01:13:27.465Z,7.03
2023-04-03T01:15:55.420Z,5.93
2023-04-03T01:18:24.202Z,6.43
2023-04-03T01:21:13.248Z,6.32
2023-04-03T01:23:55.394Z,5.97
2023-04-03T01:26:23.455Z,6.30
2023-04-03T01:28:51.208Z,6.00
2023-04-03T01:31:27.252Z,5.32
2023-04-03T01:33:57.325Z,5.70
2023-04-03T01:36:27.599Z,5.70
2023-04-03T01:38:55.907Z,5.80
2023-04-03T01:41:23.785Z,6.28
2023-04-03T01:43:51.910Z,6.50
2023-04-03T01:46:20.886Z,6.75
2023-04-03T01:48:49.272Z,6.70
2023-04-03T01:51:18.574Z,6.95
2023-04-03T01:53:46.346Z,7.35
2023-04-03T01:56:14.198Z,7.82
2023-04-03T01:58:42.310Z,8.23
2023-04-03T02:01:10.147Z,8.00
2023-04-03T02:03:38.061Z,7.63
2023-04-03T02:06:06.426Z,7.57
2023-04-03T02:08:35.601Z,8.00
2023-04-03T02:11:03.583Z,8.43
2023-04-03T02:13:31.361Z,8.32
2023-04-03T02:16:00.095Z,8.73
2023-04-03T02:18:27.952Z,8.60
2023-04-03T02:20:55.771Z,8.40
2023-04-03T02:23:23.481Z,8.07
2023-04-03T02:25:52.612Z,8.50
2023-04-03T02:28:20.464Z,7.43
2023-04-03T02:30:48.538Z,7.53
2023-04-03T02:33:16.339Z,8.27
2023-04-03T02:35:44.183Z,8.30
2023-04-03T02:38:12.007Z,8.20
2023-04-03T02:40:40.061Z,7.70
2023-04-03T02:43:09.520Z,6.63
2023-04-03T02:45:37.271Z,6.50
2023-04-03T02:48:06.629Z,5.03
2023-04-03T02:50:34.897Z,5.28
2023-04-03T02:53:03.248Z,5.38
2023-04-03T02:55:30.977Z,5.43
2023-04-03T02:57:58.726Z,5.13
2023-04-03T03:00:27.929Z,4.90
2023-04-03T03:02:55.811Z,5.35
2023-04-03T03:05:23.943Z,5.60
2023-04-03T03:07:52.230Z,5.13
2023-04-03T03:10:20.072Z,5.80
2023-04-03T03:12:48.370Z,4.70
2023-04-03T03:15:16.537Z,5.15
2023-04-03T03:17:46.004Z,5.20
2023-04-03T03:20:15.627Z,5.60
2023-04-03T03:22:43.507Z,5.50
2023-04-03T03:25:11.478Z,5.68
2023-04-03T03:27:39.476Z,5.55
2023-04-03T03:30:08.823Z,5.55
2023-04-03T03:32:36.714Z,5.82
2023-04-03T03:35:06.594Z,5.82
2023-04-03T03:37:34.362Z,6.25
2023-04-03T03:40:02.072Z,5.47
2023-04-03T03:42:30.060Z,5.88
2023-04-03T03:44:58.128Z,5.97
2023-04-03T03:47:26.792Z,5.70
2023-04-03T03:49:54.656Z,6.47
2023-04-03T03:52:24.317Z,5.85
2023-04-03T03:54:52.113Z,5.70
2023-04-03T03:57:20.067Z,5.75
2023-04-03T03:59:48.538Z,6.00
2023-04-03T04:02:17.422Z,5.80
2023-04-03T04:04:45.683Z,6.05
2023-04-03T04:07:13.461Z,6.53
2023-04-03T04:09:42.758Z,6.65
2023-04-03T04:12:10.930Z,6.65
2023-04-03T04:14:38.745Z,6.35
2023-04-03T04:17:07.642Z,7.20
2023-04-03T04:19:35.523Z,7.18
2023-04-03T04:22:03.263Z,6.40
2023-04-03T04:24:30.964Z,6.75
2023-04-03T04:27:00.352Z,7.00
2023-04-03T04:29:28.216Z,6.35
2023-04-03T04:31:55.981Z,6.38
2023-04-03T04:34:23.779Z,7.32
2023-04-03T04:36:51.746Z,6.57
2023-04-03T04:39:19.688Z,6.40
2023-04-03T04:41:47.569Z,7.25
2023-04-03T04:44:16.967Z,6.60
2023-04-03T04:46:44.741Z,6.63
2023-04-03T04:49:12.489Z,7.00
2023-04-03T04:51:51.201Z,7.25
2023-04-03T04:54:20.130Z,6.47
2023-04-03T04:56:47.970Z,6.80
2023-04-03T04:59:17.934Z,6.85
2023-04-03T05:01:47.193Z,6.57
2023-04-03T05:04:15.014Z,6.38
2023-04-03T05:06:43.554Z,7.82
2023-04-03T05:09:12.013Z,7.22
2023-04-03T05:11:39.776Z,7.18
2023-04-03T05:14:07.908Z,6.90
2023-04-03T05:16:37.317Z,6.32
2023-04-03T05:19:05.861Z,6.07
2023-04-03T05:21:33.929Z,6.57
2023-04-03T05:24:03.672Z,6.45
2023-04-03T05:26:31.859Z,6.50
2023-04-03T05:29:00.383Z,6.50
2023-04-03T05:31:30.462Z,5.93
2023-04-03T05:34:00.070Z,5.65
2023-04-03T05:36:28.035Z,4.97
2023-04-03T05:38:57.347Z,4.75
2023-04-03T05:41:25.811Z,5.10
2023-04-03T05:43:53.681Z,4.60
2023-04-03T05:46:23.339Z,4.85
2023-04-03T05:48:51.889Z,4.53
2023-04-03T05:51:24.094Z,4.63
2023-04-03T05:53:57.138Z,4.72
2023-04-03T05:56:25.240Z,5.03
2023-04-03T05:58:53.117Z,4.78
2023-04-03T06:01:20.969Z,4.75
2023-04-03T06:03:48.865Z,4.55
2023-04-03T06:06:16.870Z,5.05
2023-04-03T06:08:47.082Z,5.10
2023-04-03T06:11:14.874Z,4.43
2023-04-03T06:13:42.848Z,4.47
2023-04-03T06:16:11.787Z,5.07
2023-04-03T06:18:39.565Z,4.50
2023-04-03T06:21:08.747Z,5.22
2023-04-03T06:23:36.589Z,4.75
2023-04-03T06:26:06.797Z,4.43
2023-04-03T06:28:34.649Z,4.47
2023-04-03T06:31:02.426Z,3.67
2023-04-03T06:33:30.221Z,4.30
2023-04-03T06:35:59.666Z,3.70
2023-04-03T06:38:27.624Z,4.15
2023-04-03T06:40:55.557Z,4.10
2023-04-03T06:43:25.450Z,3.80
2023-04-03T06:45:53.345Z,4.60
2023-04-03T06:48:22.005Z,4.35
2023-04-03T06:50:49.788Z,3.95
2023-04-03T06:53:17.706Z,4.43
2023-04-03T06:55:46.158Z,3.67
2023-04-03T06:58:14.934Z,4.20
2023-04-03T07:00:44.378Z,3.40
2023-04-03T07:03:12.201Z,4.25
2023-04-03T07:05:40.661Z,3.30
2023-04-03T07:08:08.735Z,4.28
2023-04-03T07:10:37.315Z,3.70
2023-04-03T07:13:05.359Z,3.75
2023-04-03T07:15:33.229Z,3.08
2023-04-03T07:18:02.586Z,3.35
2023-04-03T07:20:30.496Z,3.22
2023-04-03T07:22:58.240Z,3.08
2023-04-03T07:25:26.374Z,3.13
2023-04-03T07:27:55.409Z,3.67
2023-04-03T07:30:23.471Z,3.58
2023-04-03T07:32:52.499Z,3.22
2023-04-03T07:35:21.848Z,3.13
2023-04-03T07:37:49.600Z,3.13
2023-04-03T07:40:19.065Z,2.92
2023-04-03T07:42:47.631Z,3.15
2023-04-03T07:45:15.962Z,2.70
2023-04-03T07:47:43.827Z,2.67
2023-04-03T07:50:12.020Z,3.25
2023-04-03T07:52:41.715Z,2.92
2023-04-03T07:55:10.342Z,3.20
2023-04-03T07:57:38.476Z,3.10
2023-04-03T08:00:07.807Z,2.60
2023-04-03T08:02:35.836Z,3.25
2023-04-03T08:05:03.673Z,3.10
2023-04-03T08:07:31.535Z,2.90
2023-04-03T08:10:00.718Z,2.55
2023-04-03T08:12:29.562Z,3.28
2023-04-03T08:14:57.521Z,3.03
2023-04-03T08:17:25.465Z,3.90
2023-04-03T08:19:53.267Z,3.35
2023-04-03T08:22:21.269Z,3.13
2023-04-03T08:24:58.515Z,3.17
2023-04-03T08:27:29.918Z,2.97
2023-04-03T08:29:58.134Z,3.50
2023-04-03T08:32:26.773Z,3.08
2023-04-03T08:34:54.825Z,2.90
2023-04-03T08:37:22.555Z,3.03
2023-04-03T08:39:51.008Z,3.03
2023-04-03T08:42:35.510Z,3.13
2023-04-03T08:45:12.824Z,3.10
2023-04-03T08:47:45.835Z,3.70
2023-04-03T08:50:16.841Z,2.80
2023-04-03T08:52:48.389Z,2.85
2023-04-03T08:55:26.117Z,3.25
2023-04-03T08:58:01.971Z,3.00
2023-04-03T09:00:47.451Z,3.53
2023-04-03T09:03:17.092Z,3.13
2023-04-03T09:05:49.813Z,2.72
2023-04-03T09:08:25.250Z,3.95
2023-04-03T09:10:59.648Z,3.03
2023-04-03T09:13:35.618Z,3.75
2023-04-03T09:16:16.165Z,3.08
2023-04-03T09:18:48.505Z,2.92
2023-04-03T09:21:22.812Z,3.13
2023-04-03T09:23:53.839Z,3.10
2023-04-03T09:26:27.006Z,2.83
2023-04-03T09:28:59.956Z,2.92
2023-04-03T09:31:40.781Z,3.33
2023-04-03T09:34:16.554Z,3.45
2023-04-03T09:36:46.183Z,2.95
2023-04-03T09:39:16.993Z,3.95
2023-04-03T09:41:58.788Z,3.33
2023-04-03T09:44:29.268Z,3.92
2023-04-03T09:46:58.576Z,3.38
2023-04-03T09:49:26.591Z,3.10
2023-04-03T09:51:55.068Z,3.17
2023-04-03T09:54:32.419Z,3.53
2023-04-03T09:57:06.187Z,3.25
2023-04-03T09:59:34.975Z,3.10
2023-04-03T10:02:07.258Z,4.00
2023-04-03T10:04:41.649Z,3.20
2023-04-03T10:07:31.944Z,2.80
2023-04-03T10:10:01.011Z,3.15
2023-04-03T10:12:28.820Z,3.00
2023-04-03T10:14:58.404Z,3.75
2023-04-03T10:17:41.455Z,3.22
2023-04-03T10:20:24.405Z,3.28
2023-04-03T10:23:04.061Z,3.15
2023-04-03T10:25:37.736Z,2.97
2023-04-03T10:28:10.285Z,3.00
2023-04-03T10:30:48.440Z,2.78
2023-04-03T10:33:35.009Z,2.75
2023-04-03T10:36:12.893Z,2.90
2023-04-03T10:38:48.933Z,3.05
2023-04-03T10:41:24.275Z,3.47
2023-04-03T10:44:01.226Z,2.75
2023-04-03T10:46:35.090Z,3.00
2023-04-03T10:49:16.643Z,3.05
2023-04-03T10:51:47.259Z,2.70
2023-04-03T10:54:23.745Z,2.95
2023-04-03T10:57:08.600Z,2.70
2023-04-03T10:59:46.931Z,3.00
2023-04-03T11:02:21.642Z,2.97
2023-04-03T11:04:55.842Z,7.55
2023-04-03T11:07:26.101Z,3.53
2023-04-03T11:09:57.708Z,2.72
2023-04-03T11:12:30.251Z,3.40
2023-04-03T11:14:59.240Z,3.28
2023-04-03T11:17:34.129Z,3.55
2023-04-03T11:20:09.320Z,3.47
2023-04-03T11:22:41.941Z,3.20
2023-04-03T11:25:23.006Z,3.47
2023-04-03T11:27:56.948Z,3.30
2023-04-03T11:30:30.037Z,3.60
2023-04-03T11:33:26.004Z,3.65
2023-04-03T11:36:00.205Z,3.47
2023-04-03T11:38:31.899Z,3.90
2023-04-03T11:41:01.156Z,3.03
2023-04-03T11:43:32.655Z,3.30
2023-04-03T11:46:02.051Z,3.75
2023-04-03T11:48:49.946Z,3.05
2023-04-03T11:51:44.753Z,3.85
2023-04-03T11:54:50.664Z,2.88
2023-04-03T11:57:48.309Z,3.33
2023-04-03T12:00:51.680Z,3.25
2023-04-03T12:03:47.369Z,2.72
2023-04-03T12:06:55.877Z,3.40
2023-04-03T12:09:46.458Z,3.15
2023-04-03T12:12:30.092Z,3.10
2023-04-03T12:15:13.399Z,3.40
2023-04-03T12:17:41.330Z,3.65
2023-04-03T12:20:42.712Z,3.40
2023-04-03T12:23:26.217Z,3.25
2023-04-03T12:26:02.675Z,3.22
2023-04-03T12:28:31.015Z,3.75
2023-04-03T12:30:59.841Z,3.60
2023-04-03T12:33:41.573Z,3.55
2023-04-03T12:36:13.728Z,3.28
2023-04-03T12:39:06.374Z,3.85
2023-04-03T12:41:40.967Z,3.30
2023-04-03T12:44:27.206Z,3.03
2023-04-03T12:46:56.091Z,3.47
2023-04-03T12:49:37.941Z,3.30
2023-04-03T12:52:20.988Z,3.03
2023-04-03T12:54:51.797Z,3.75
2023-04-03T12:57:20.978Z,3.75
2023-04-03T12:59:49.534Z,2.92
2023-04-03T13:02:25.514Z,2.63
2023-04-03T13:04:55.314Z,2.75
2023-04-03T13:07:26.705Z,2.90
2023-04-03T13:10:03.016Z,3.50
2023-04-03T13:12:32.339Z,2.40
2023-04-03T13:15:02.438Z,3.10
2023-04-03T13:17:30.356Z,3.53
2023-04-03T13:20:12.871Z,3.30
2023-04-03T13:22:45.086Z,3.10
2023-04-03T13:25:16.968Z,3.10
2023-04-03T13:27:45.860Z,3.20
2023-04-03T13:30:31.891Z,3.08
2023-04-03T13:33:02.371Z,2.65
2023-04-03T13:35:37.204Z,3.00
2023-04-03T13:38:09.187Z,2.85
2023-04-03T13:40:50.428Z,3.00
2023-04-03T13:43:21.798Z,2.73
2023-04-03T13:45:58.580Z,3.58
2023-04-03T13:48:26.624Z,3.50
2023-04-03T13:51:02.109Z,2.97
2023-04-03T13:53:32.024Z,2.60
2023-04-03T13:56:08.401Z,3.53
2023-04-03T13:58:37.682Z,2.92
2023-04-03T14:01:12.740Z,3.10
2023-04-03T14:03:45.541Z,3.05
2023-04-03T14:06:16.435Z,3.35
2023-04-03T14:08:45.618Z,2.92
2023-04-03T14:11:17.518Z,3.90
2023-04-03T14:13:46.400Z,2.30
2023-04-03T14:16:19.700Z,2.70
2023-04-03T14:18:49.187Z,2.53
2023-04-03T14:21:19.093Z,2.58
2023-04-03T14:23:47.389Z,2.90
2023-04-03T14:26:19.138Z,2.60
2023-04-03T14:28:48.596Z,3.00
2023-04-03T14:31:18.811Z,2.72
2023-04-03T14:33:47.177Z,3.05
2023-04-03T14:36:16.616Z,2.90
2023-04-03T14:38:45.091Z,2.85
2023-04-03T14:41:16.854Z,2.83
2023-04-03T14:43:47.718Z,2.90
2023-04-03T14:46:18.006Z,2.90
2023-04-03T14:48:46.809Z,2.55
2023-04-03T14:51:16.704Z,2.88
2023-04-03T14:53:45.682Z,2.63
2023-04-03T14:56:15.387Z,2.67
2023-04-03T14:58:43.636Z,2.60
2023-04-03T15:01:15.125Z,2.95
2023-04-03T15:03:43.154Z,2.38
2023-04-03T15:06:12.453Z,2.58
2023-04-03T15:08:42.024Z,2.67
2023-04-03T15:11:09.912Z,2.40
2023-04-03T15:13:38.054Z,2.55
2023-04-03T15:16:06.574Z,2.85
2023-04-03T15:18:40.209Z,2.72
2023-04-03T15:21:08.085Z,2.70
2023-04-03T15:23:36.206Z,2.40
2023-04-03T15:26:05.028Z,2.20
2023-04-03T15:28:36.067Z,2.45
2023-04-03T15:31:05.065Z,2.38
2023-04-03T15:33:33.921Z,2.38
2023-04-03T15:36:07.712Z,2.22
2023-04-03T15:38:40.074Z,2.40
2023-04-03T15:41:08.276Z,2.50
2023-04-03T15:43:36.391Z,2.72
2023-04-03T15:46:05.020Z,2.22
2023-04-03T15:48:33.129Z,2.80
2023-04-03T15:51:03.255Z,2.72
2023-04-03T15:53:31.257Z,2.75
2023-04-03T15:55:58.981Z,2.50
2023-04-03T15:58:26.898Z,2.35
2023-04-03T16:00:54.960Z,2.63
2023-04-03T16:03:23.697Z,2.65
2023-04-03T16:05:52.408Z,2.50
2023-04-03T16:08:22.124Z,2.45
2023-04-03T16:10:50.388Z,2.75
2023-04-03T16:13:18.154Z,2.55
2023-04-03T16:15:45.982Z,2.40
2023-04-03T16:18:15.270Z,3.20
2023-04-03T16:20:44.651Z,2.63
2023-04-03T16:23:13.859Z,2.72
2023-04-03T16:25:47.182Z,2.53
2023-04-03T16:28:16.419Z,2.40
2023-04-03T16:30:44.478Z,2.50
2023-04-03T16:33:13.448Z,2.20
2023-04-03T16:35:43.027Z,3.15
2023-04-03T16:38:11.123Z,2.40
2023-04-03T16:40:38.968Z,3.00
2023-04-03T16:43:08.198Z,2.20
2023-04-03T16:45:36.293Z,2.58
2023-04-03T16:48:04.348Z,2.60
2023-04-03T16:50:32.232Z,2.45
2023-04-03T16:53:00.580Z,2.58
2023-04-03T16:55:28.474Z,2.50
2023-04-03T16:57:56.301Z,2.70
2023-04-03T17:00:25.654Z,3.83
2023-04-03T17:02:53.566Z,2.70
2023-04-03T17:05:21.550Z,3.00
2023-04-03T17:07:49.506Z,2.70
2023-04-03T17:10:17.441Z,2.47
2023-04-03T17:12:45.481Z,2.55
2023-04-03T17:15:13.470Z,2.33
2023-04-03T17:17:42.882Z,2.78
2023-04-03T17:20:11.843Z,2.60
2023-04-03T17:22:39.654Z,2.40
2023-04-03T17:25:08.306Z,2.67
2023-04-03T17:27:36.464Z,2.70
2023-04-03T17:30:05.056Z,2.90
2023-04-03T17:32:32.790Z,2.70
2023-04-03T17:35:01.969Z,2.70
2023-04-03T17:37:29.775Z,2.80
2023-04-03T17:39:57.488Z,2.78
2023-04-03T17:42:25.352Z,2.85
2023-04-03T17:44:53.035Z,2.60
2023-04-03T17:47:20.915Z,16.02
2023-04-03T17:49:48.669Z,2.78
2023-04-03T17:52:17.869Z,3.10
2023-04-03T17:54:46.485Z,2.70
2023-04-03T17:57:14.320Z,2.50
2023-04-03T17:59:42.137Z,2.65
2023-04-03T18:02:09.927Z,2.47
2023-04-03T18:04:37.749Z,2.70
2023-04-03T18:07:10.083Z,2.85
2023-04-03T18:09:40.858Z,3.33
2023-04-03T18:12:10.433Z,2.97
2023-04-03T18:14:40.251Z,2.80
2023-04-03T18:17:08.571Z,3.08
2023-04-03T18:19:36.855Z,2.80
2023-04-03T18:22:07.707Z,3.20
2023-04-03T18:24:36.620Z,2.80
2023-04-03T18:27:08.516Z,4.40
2023-04-03T18:29:38.859Z,3.15
2023-04-03T18:32:10.674Z,3.05
2023-04-03T18:34:39.092Z,3.33
2023-04-03T18:37:07.085Z,3.47
2023-04-03T18:39:34.949Z,3.17
2023-04-03T18:42:09.846Z,2.97
2023-04-03T18:44:39.035Z,3.55
2023-04-03T18:47:07.885Z,3.38
2023-04-03T18:49:39.767Z,3.25
2023-04-03T18:52:07.514Z,3.47
2023-04-03T18:54:37.306Z,3.30
2023-04-03T18:57:06.861Z,3.63
2023-04-03T18:59:34.588Z,3.05
2023-04-03T19:02:02.457Z,3.50
2023-04-03T19:04:31.288Z,3.47
2023-04-03T19:06:59.242Z,3.30
2023-04-03T19:09:27.339Z,3.10
2023-04-03T19:11:55.133Z,3.08
2023-04-03T19:14:24.405Z,3.25
2023-04-03T19:16:52.217Z,3.05
2023-04-03T19:19:20.479Z,3.08
2023-04-03T19:21:48.604Z,2.70
2023-04-03T19:24:16.398Z,2.95
2023-04-03T19:26:44.340Z,3.00
2023-04-03T19:29:12.733Z,2.95
2023-04-03T19:31:41.926Z,2.92
2023-04-03T19:34:09.820Z,2.70
2023-04-03T19:36:38.920Z,3.03
2023-04-03T19:39:07.659Z,3.28
2023-04-03T19:41:37.079Z,2.60
2023-04-03T19:44:07.478Z,2.75
2023-04-03T19:46:36.577Z,7.03
2023-04-03T19:49:06.111Z,2.60
2023-04-03T19:51:33.885Z,2.38
2023-04-03T19:54:01.730Z,2.67
2023-04-03T19:56:29.609Z,2.53
2023-04-03T19:58:57.763Z,2.63
2023-04-03T20:01:26.990Z,2.50
2023-04-03T20:03:54.894Z,2.42
2023-04-03T20:06:24.224Z,2.30
2023-04-03T20:08:52.016Z,2.92
2023-04-03T20:11:19.812Z,2.35
2023-04-03T20:13:50.180Z,2.50
2023-04-03T20:16:18.207Z,2.28
2023-04-03T20:18:47.411Z,2.33
2023-04-03T20:21:15.263Z,2.50
2023-04-03T20:23:45.024Z,2.78
2023-04-03T20:26:23.664Z,2.50
2023-04-03T20:28:52.368Z,2.50
2023-04-03T20:31:20.240Z,2.28
2023-04-03T20:33:48.748Z,2.03
2023-04-03T20:36:16.847Z,2.30
2023-04-03T20:38:46.178Z,2.13
2023-04-03T20:41:14.425Z,2.42
2023-04-03T20:43:43.237Z,2.60
2023-04-03T20:46:14.010Z,2.42
2023-04-03T20:48:42.120Z,2.17
2023-04-03T20:51:11.141Z,2.08
2023-04-03T20:53:39.373Z,3.25
2023-04-03T20:56:09.177Z,2.67
2023-04-03T20:58:39.795Z,2.65
2023-04-03T21:01:15.924Z,2.63
2023-04-03T21:03:43.870Z,2.17
2023-04-03T21:06:49.686Z,3.03
2023-04-03T21:09:54.637Z,3.20
2023-04-03T21:13:00.322Z,2.42
2023-04-03T21:15:56.042Z,2.40
2023-04-03T21:18:48.268Z,2.33
2023-04-03T21:21:22.299Z,2.15
2023-04-03T21:23:51.167Z,2.20
2023-04-03T21:26:19.266Z,2.65
2023-04-03T21:28:47.368Z,2.28
2023-04-03T21:31:15.331Z,2.75
2023-04-03T21:33:45.210Z,1.73
2023-04-03T21:36:13.251Z,2.30
2023-04-03T21:38:41.350Z,1.88
2023-04-03T21:41:09.608Z,2.08
2023-04-03T21:43:37.382Z,1.55
2023-04-03T21:46:05.896Z,1.90
2023-04-03T21:48:34.441Z,2.78
2023-04-03T21:51:07.752Z,2.63
2023-04-03T21:53:36.506Z,2.13
2023-04-03T21:56:04.334Z,2.10
2023-04-03T21:58:32.752Z,1.92
2023-04-03T22:01:10.565Z,1.92
2023-04-03T22:03:38.464Z,1.77
2023-04-03T22:06:08.096Z,2.05
2023-04-03T22:08:36.196Z,1.98
2023-04-03T22:11:05.102Z,4.05
2023-04-03T22:13:32.991Z,2.33
2023-04-03T22:16:01.852Z,1.60
2023-04-03T22:18:29.863Z,1.77
2023-04-03T22:20:57.669Z,1.75
2023-04-03T22:23:27.282Z,1.85
2023-04-03T22:25:59.269Z,2.17
2023-04-03T22:28:28.096Z,1.80
2023-04-03T22:30:56.326Z,1.60
2023-04-03T22:33:24.710Z,2.05
2023-04-03T22:35:52.860Z,2.08
2023-04-03T22:38:20.689Z,1.63
2023-04-03T22:40:57.373Z,1.92
2023-04-03T22:43:25.207Z,1.65
2023-04-03T22:45:52.938Z,1.55
2023-04-03T22:48:20.825Z,2.08
2023-04-03T22:50:49.032Z,1.75
2023-04-03T22:53:16.876Z,1.70
2023-04-03T22:55:44.722Z,2.65
2023-04-03T22:58:13.868Z,1.90
2023-04-03T23:00:42.087Z,1.80
2023-04-03T23:03:13.033Z,2.28
2023-04-03T23:05:41.195Z,2.47
2023-04-03T23:08:09.246Z,1.98
2023-04-03T23:10:37.144Z,2.47
2023-04-03T23:13:05.204Z,1.50
2023-04-03T23:15:34.399Z,2.42
2023-04-03T23:18:02.274Z,2.45
2023-04-03T23:20:30.200Z,2.10
2023-04-03T23:22:58.281Z,2.03
2023-04-03T23:25:26.600Z,1.85
2023-04-03T23:27:54.852Z,2.00
2023-04-03T23:30:22.795Z,1.77
2023-04-03T23:32:51.926Z,1.50
2023-04-03T23:35:19.682Z,2.20
2023-04-03T23:37:47.401Z,1.92
2023-04-03T23:40:15.490Z,2.22
2023-04-03T23:42:43.511Z,2.10
2023-04-03T23:45:11.731Z,1.42
2023-04-03T23:47:39.601Z,1.88
2023-04-03T23:50:10.247Z,1.98
2023-04-03T23:52:38.318Z,1.98
2023-04-03T23:55:07.342Z,2.30
2023-04-03T23:57:35.472Z,2.25
